Time;durP1;ratioP1;P1;durP2;ratioP2;P2;SDS_P1;SDS_P2;PMS_P1;PMS_P2;Temp;Humidity;BMP_temperature;BMP_pressure;BME280_temperature;BME280_humidity;BME280_pressure;Samples;Min_cycle;Max_cycle;Signal;HPM_P1;HPM_P2
2021/10/24 00:00:01;;;;;;;11.17;7.53;;;5.30;99.90;;;;;;5014677;28;20209;-63
2021/10/24 00:02:29;;;;;;;11.57;7.70;;;5.20;99.90;;;;;;5014703;28;20283;-63
2021/10/24 00:04:57;;;;;;;14.17;8.00;;;5.20;99.90;;;;;;5014434;28;20217;-63
2021/10/24 00:07:25;;;;;;;13.83;8.10;;;5.20;99.90;;;;;;5014287;28;20207;-63
2021/10/24 00:09:54;;;;;;;11.50;8.07;;;5.20;99.90;;;;;;5014635;28;20296;-63
2021/10/24 00:12:22;;;;;;;12.87;8.20;;;5.20;99.90;;;;;;5014298;28;20286;-62
2021/10/24 00:14:50;;;;;;;12.23;7.57;;;5.20;99.90;;;;;;5014564;28;20259;-62
2021/10/24 00:17:19;;;;;;;12.53;7.37;;;5.10;99.90;;;;;;5014043;28;20662;-63
2021/10/24 00:19:46;;;;;;;11.53;7.87;;;5.10;99.90;;;;;;5014194;28;20599;-64
2021/10/24 00:22:14;;;;;;;10.97;7.70;;;5.00;99.90;;;;;;5015582;28;20246;-63
2021/10/24 00:24:42;;;;;;;10.00;7.27;;;5.10;99.90;;;;;;5015121;28;20297;-64
2021/10/24 00:27:11;;;;;;;14.37;8.03;;;5.10;99.90;;;;;;5014647;28;20252;-63
2021/10/24 00:29:39;;;;;;;11.23;7.27;;;5.10;99.90;;;;;;5013901;28;20606;-63
2021/10/24 00:32:08;;;;;;;11.33;7.30;;;5.10;99.90;;;;;;5014106;28;20292;-64
2021/10/24 00:34:36;;;;;;;10.73;7.43;;;5.10;99.90;;;;;;5013844;28;20278;-63
2021/10/24 00:37:04;;;;;;;10.67;7.50;;;5.20;99.90;;;;;;5013910;28;20614;-63
2021/10/24 00:39:32;;;;;;;11.10;6.70;;;5.20;99.90;;;;;;5013382;28;20300;-63
2021/10/24 00:42:00;;;;;;;10.17;6.50;;;5.10;99.90;;;;;;5013950;28;20241;-62
2021/10/24 00:44:32;;;;;;;10.53;6.43;;;5.00;99.90;;;;;;5013768;28;20217;-64
2021/10/24 00:47:03;;;;;;;8.10;6.33;;;5.10;99.90;;;;;;5013765;28;20525;-64
2021/10/24 00:49:31;;;;;;;11.73;6.97;;;5.00;99.90;;;;;;5013557;28;20198;-64
2021/10/24 00:51:59;;;;;;;11.60;7.00;;;5.10;99.90;;;;;;5013550;28;20326;-64
2021/10/24 00:54:29;;;;;;;10.57;6.83;;;5.10;99.90;;;;;;5013791;28;20204;-63
2021/10/24 00:56:57;;;;;;;11.93;6.87;;;5.10;99.90;;;;;;5013381;28;20297;-63
2021/10/24 00:59:26;;;;;;;12.40;6.57;;;5.00;99.90;;;;;;5013482;28;20292;-63
2021/10/24 01:01:56;;;;;;;11.17;6.37;;;5.00;99.90;;;;;;5013643;28;20291;-63
2021/10/24 01:04:24;;;;;;;9.83;6.27;;;;;;;;;;5013637;28;20232;-63
2021/10/24 01:06:53;;;;;;;9.17;6.30;;;;;;;;;;5013673;28;20200;-63
2021/10/24 01:09:23;;;;;;;9.00;6.43;;;;;;;;;;5013488;28;20206;-63
2021/10/24 01:11:52;;;;;;;11.20;6.50;;;4.80;99.90;;;;;;5013519;28;20610;-64
2021/10/24 01:14:20;;;;;;;11.90;6.90;;;4.80;99.90;;;;;;5013489;28;20196;-63
2021/10/24 01:16:51;;;;;;;9.93;6.90;;;4.80;99.90;;;;;;5013394;28;20206;-62
2021/10/24 01:19:22;;;;;;;12.13;6.47;;;4.90;99.90;;;;;;5013181;28;20651;-63
2021/10/24 01:21:51;;;;;;;13.10;6.50;;;4.90;99.90;;;;;;5013306;28;20188;-63
2021/10/24 01:24:19;;;;;;;9.77;6.53;;;4.90;99.90;;;;;;5013104;28;20231;-64
2021/10/24 01:26:47;;;;;;;9.53;6.23;;;4.90;99.90;;;;;;5013272;28;20228;-63
2021/10/24 01:29:15;;;;;;;9.17;6.67;;;4.90;99.90;;;;;;5013474;28;20312;-63
2021/10/24 01:31:43;;;;;;;11.40;7.03;;;4.90;99.90;;;;;;5013417;28;20207;-63
2021/10/24 01:34:11;;;;;;;12.23;6.53;;;4.80;99.90;;;;;;5013245;28;20235;-62
2021/10/24 01:36:39;;;;;;;11.60;7.87;;;4.80;99.90;;;;;;5013292;28;20605;-64
2021/10/24 01:39:08;;;;;;;12.70;6.57;;;4.80;99.90;;;;;;5013290;28;20287;-64
2021/10/24 01:41:36;;;;;;;9.47;6.87;;;4.80;99.90;;;;;;5013005;28;20663;-63
2021/10/24 01:44:04;;;;;;;10.60;6.90;;;4.80;99.90;;;;;;5013262;28;20217;-64
2021/10/24 01:46:32;;;;;;;10.33;6.03;;;4.80;99.90;;;;;;5013156;28;20289;-63
2021/10/24 01:49:01;;;;;;;12.80;6.43;;;;;;;;;;5012593;28;20757;-63
2021/10/24 01:51:28;;;;;;;9.23;6.67;;;4.70;99.90;;;;;;5012485;28;20310;-63
2021/10/24 01:53:56;;;;;;;11.03;6.67;;;4.70;99.90;;;;;;5012760;28;20204;-63
2021/10/24 01:56:25;;;;;;;14.43;7.43;;;4.70;99.90;;;;;;5012616;28;20693;-63
2021/10/24 01:58:53;;;;;;;9.30;5.97;;;4.70;99.90;;;;;;5012907;28;20204;-64
2021/10/24 02:01:21;;;;;;;8.23;5.83;;;4.60;99.90;;;;;;5012570;28;20562;-64
2021/10/24 02:03:49;;;;;;;10.63;6.30;;;4.60;99.90;;;;;;5012697;28;20316;-64
2021/10/24 02:06:17;;;;;;;11.03;7.00;;;4.60;99.90;;;;;;5012697;28;20204;-63
2021/10/24 02:08:45;;;;;;;9.60;6.20;;;4.60;99.90;;;;;;5012570;28;20229;-63
2021/10/24 02:11:13;;;;;;;8.23;6.77;;;4.60;99.90;;;;;;5012976;28;20202;-63
2021/10/24 02:13:42;;;;;;;9.73;6.40;;;4.60;99.90;;;;;;5012541;28;20632;-63
2021/10/24 02:16:10;;;;;;;9.43;6.60;;;4.60;99.90;;;;;;5012743;28;20200;-64
2021/10/24 02:18:38;;;;;;;10.70;6.70;;;4.60;99.90;;;;;;5012369;28;20669;-64
2021/10/24 02:21:06;;;;;;;7.87;6.33;;;4.60;99.90;;;;;;5012579;28;20348;-64
2021/10/24 02:23:34;;;;;;;11.57;6.60;;;4.60;99.90;;;;;;5012529;28;20208;-63
2021/10/24 02:26:03;;;;;;;11.10;6.67;;;;;;;;;;5012463;28;20287;-63
2021/10/24 02:28:31;;;;;;;12.37;6.53;;;4.60;99.90;;;;;;5012645;28;20326;-62
2021/10/24 02:31:00;;;;;;;10.73;7.13;;;4.50;99.90;;;;;;5012530;28;20311;-64
2021/10/24 02:33:28;;;;;;;11.80;7.30;;;4.50;99.90;;;;;;5012599;28;20228;-64
2021/10/24 02:35:56;;;;;;;9.37;6.70;;;4.60;99.90;;;;;;5012545;28;20241;-64
2021/10/24 02:38:24;;;;;;;11.67;6.73;;;4.50;99.90;;;;;;5012498;28;20211;-62
2021/10/24 02:40:52;;;;;;;11.63;7.23;;;4.50;99.90;;;;;;5012628;28;20228;-64
2021/10/24 02:43:20;;;;;;;11.93;7.23;;;4.50;99.90;;;;;;5012568;28;20295;-64
2021/10/24 02:45:48;;;;;;;10.27;7.60;;;4.50;99.90;;;;;;5012422;28;20264;-63
2021/10/24 02:48:17;;;;;;;10.83;8.23;;;4.50;99.90;;;;;;5012628;28;20300;-64
2021/10/24 02:50:45;;;;;;;9.97;7.13;;;4.50;99.90;;;;;;5012396;28;20222;-63
2021/10/24 02:53:12;;;;;;;9.90;6.80;;;4.50;99.90;;;;;;5011973;28;20748;-63
2021/10/24 02:55:40;;;;;;;10.70;7.47;;;4.40;99.90;;;;;;5012412;28;20302;-64
2021/10/24 02:58:08;;;;;;;13.43;7.17;;;4.40;99.90;;;;;;5012030;28;20239;-64
2021/10/24 03:00:36;;;;;;;10.53;7.47;;;4.40;99.90;;;;;;5012445;28;20648;-64
2021/10/24 03:03:04;;;;;;;10.13;7.03;;;;;;;;;;5015696;28;20211;-63
2021/10/24 03:05:34;;;;;;;9.37;7.07;;;;;;;;;;5015872;28;20225;-63
2021/10/24 03:08:02;;;;;;;10.93;6.77;;;4.30;99.90;;;;;;5016038;28;20636;-63
2021/10/24 03:10:30;;;;;;;12.53;7.07;;;4.30;99.90;;;;;;5016652;28;20668;-63
2021/10/24 03:12:58;;;;;;;10.20;7.40;;;4.20;99.90;;;;;;5015809;28;20295;-63
2021/10/24 03:15:26;;;;;;;12.60;6.70;;;4.20;99.90;;;;;;5015598;28;20235;-63
2021/10/24 03:17:54;;;;;;;9.53;6.97;;;4.20;99.90;;;;;;5015580;28;20223;-62
2021/10/24 03:20:21;;;;;;;11.20;7.13;;;4.10;99.90;;;;;;5015544;28;20205;-64
2021/10/24 03:22:51;;;;;;;11.20;6.90;;;4.10;99.90;;;;;;5014945;28;20209;-64
2021/10/24 03:25:19;;;;;;;10.17;7.57;;;4.20;99.90;;;;;;5015196;28;20231;-64
2021/10/24 03:27:47;;;;;;;11.50;7.20;;;4.20;99.90;;;;;;5015350;28;20204;-63
2021/10/24 03:30:14;;;;;;;12.50;7.63;;;4.20;99.90;;;;;;5015223;28;20298;-65
2021/10/24 03:32:42;;;;;;;10.13;7.07;;;4.20;99.90;;;;;;5015256;28;20612;-63
2021/10/24 03:35:10;;;;;;;10.03;7.50;;;4.10;99.90;;;;;;5014860;28;20255;-63
2021/10/24 03:37:38;;;;;;;11.07;7.70;;;4.10;99.90;;;;;;5014847;28;20294;-63
2021/10/24 03:40:08;;;;;;;9.50;7.43;;;;;;;;;;5015020;28;20287;-63
2021/10/24 03:42:37;;;;;;;11.77;7.53;;;;;;;;;;5015057;28;20274;-65
2021/10/24 03:45:06;;;;;;;13.13;8.67;;;4.00;99.90;;;;;;5015067;28;20224;-63
2021/10/24 03:47:34;;;;;;;10.07;7.63;;;;;;;;;;5014754;28;20682;-63
2021/10/24 03:50:02;;;;;;;10.47;7.87;;;4.10;99.90;;;;;;5014968;28;20228;-64
2021/10/24 03:52:30;;;;;;;12.20;8.03;;;4.00;99.90;;;;;;5014849;28;20292;-64
2021/10/24 03:54:58;;;;;;;13.43;7.57;;;4.00;99.90;;;;;;5014475;28;20676;-63
2021/10/24 03:57:28;;;;;;;9.77;7.90;;;4.00;99.90;;;;;;5014561;28;20687;-63
2021/10/24 03:59:55;;;;;;;11.77;7.87;;;4.00;99.90;;;;;;5014838;28;20291;-64
2021/10/24 04:02:23;;;;;;;10.50;7.83;;;4.00;99.90;;;;;;5014922;28;20203;-64
2021/10/24 04:04:51;;;;;;;9.30;7.60;;;4.00;99.90;;;;;;5014569;28;20224;-62
2021/10/24 04:07:19;;;;;;;9.83;7.53;;;4.00;99.90;;;;;;5014211;28;20204;-64
2021/10/24 04:09:47;;;;;;;9.03;7.03;;;3.90;99.90;;;;;;5014471;28;20239;-64
2021/10/24 04:12:15;;;;;;;10.73;7.90;;;4.00;99.90;;;;;;5014006;28;20237;-63
2021/10/24 04:14:45;;;;;;;11.33;7.20;;;3.90;99.90;;;;;;5013982;28;20735;-63
2021/10/24 04:17:13;;;;;;;12.60;7.70;;;;;;;;;;5014437;28;20208;-62
2021/10/24 04:19:41;;;;;;;8.63;6.90;;;;;;;;;;5014485;28;20198;-64
2021/10/24 04:22:09;;;;;;;11.70;7.67;;;3.90;99.90;;;;;;5014384;28;20203;-63
2021/10/24 04:24:36;;;;;;;8.67;7.43;;;3.90;99.90;;;;;;5013810;28;20824;-63
2021/10/24 04:27:04;;;;;;;10.67;7.93;;;3.90;99.90;;;;;;5014087;28;20241;-64
2021/10/24 04:29:33;;;;;;;10.37;7.30;;;;;;;;;;5014282;28;20198;-64
2021/10/24 04:32:02;;;;;;;12.23;7.23;;;;;;;;;;5014031;28;20196;-64
2021/10/24 04:34:30;;;;;;;10.40;7.20;;;;;;;;;;5013872;28;20259;-63
2021/10/24 04:36:58;;;;;;;8.33;6.57;;;;;;;;;;5013950;28;20310;-64
2021/10/24 04:39:27;;;;;;;11.43;7.13;;;;;;;;;;5014162;28;20207;-64
2021/10/24 04:41:55;;;;;;;9.37;6.67;;;;;;;;;;5014017;28;20296;-64
2021/10/24 04:44:23;;;;;;;9.73;7.13;;;;;;;;;;5014073;28;20239;-64
2021/10/24 04:46:51;;;;;;;8.53;6.97;;;;;;;;;;5013966;28;20232;-63
2021/10/24 04:49:21;;;;;;;10.93;6.57;;;;;;;;;;5013604;28;20294;-64
2021/10/24 04:51:49;;;;;;;9.63;6.27;;;;;;;;;;5013438;28;20712;-64
2021/10/24 04:54:19;;;;;;;11.00;6.67;;;;;;;;;;5013401;28;20218;-64
2021/10/24 04:56:48;;;;;;;9.40;5.67;;;;;;;;;;5013907;28;20282;-63
2021/10/24 04:59:16;;;;;;;8.47;6.13;;;;;;;;;;5013504;28;20796;-62
2021/10/24 05:01:45;;;;;;;9.10;6.60;;;;;;;;;;5013380;28;20302;-63
2021/10/24 05:04:13;;;;;;;6.47;5.73;;;;;;;;;;5013765;28;20380;-65
2021/10/24 05:06:43;;;;;;;9.03;5.53;;;;;;;;;;5013100;28;20222;-62
2021/10/24 05:09:11;;;;;;;8.37;5.77;;;;;;;;;;5013519;28;20302;-65
2021/10/24 05:11:39;;;;;;;9.77;5.83;;;;;;;;;;5013624;28;20298;-63
2021/10/24 05:14:08;;;;;;;9.03;5.30;;;;;;;;;;5013449;28;20638;-64
2021/10/24 05:16:36;;;;;;;6.67;5.90;;;;;;;;;;5013469;28;20642;-64
2021/10/24 05:19:05;;;;;;;8.73;5.53;;;;;;;;;;5013331;28;20235;-64
2021/10/24 05:21:33;;;;;;;8.30;5.30;;;;;;;;;;5013252;28;20203;-63
2021/10/24 05:24:03;;;;;;;8.30;5.67;;;;;;;;;;5013145;28;20292;-63
2021/10/24 05:26:32;;;;;;;7.00;5.60;;;;;;;;;;5012936;28;20688;-63
2021/10/24 05:29:00;;;;;;;9.20;5.63;;;;;;;;;;5012950;28;20686;-63
2021/10/24 05:31:28;;;;;;;6.13;5.43;;;;;;;;;;5013319;28;20314;-64
2021/10/24 05:33:56;;;;;;;7.90;5.03;;;;;;;;;;5012931;28;20285;-63
2021/10/24 05:36:25;;;;;;;7.17;4.90;;;;;;;;;;5013087;28;20272;-63
2021/10/24 05:38:53;;;;;;;6.27;4.73;;;;;;;;;;5013068;28;20214;-63
2021/10/24 05:41:23;;;;;;;6.53;4.73;;;;;;;;;;5012814;28;20210;-63
2021/10/24 05:43:51;;;;;;;6.27;5.43;;;;;;;;;;5012854;28;20726;-64
2021/10/24 05:46:19;;;;;;;6.00;4.57;;;;;;;;;;5013016;28;20226;-65
2021/10/24 05:48:48;;;;;;;9.93;5.60;;;;;;;;;;5012690;28;20204;-63
2021/10/24 05:51:16;;;;;;;8.97;5.13;;;;;;;;;;5012868;28;20204;-64
2021/10/24 05:53:44;;;;;;;8.30;5.10;;;;;;;;;;5012524;28;20245;-64
2021/10/24 05:56:13;;;;;;;7.37;5.03;;;;;;;;;;5012676;28;20291;-64
2021/10/24 05:58:43;;;;;;;9.60;4.83;;;;;;;;;;5012946;28;20204;-63
2021/10/24 06:01:11;;;;;;;9.53;4.90;;;;;;;;;;5012779;28;20218;-64
2021/10/24 06:03:39;;;;;;;7.00;5.03;;;;;;;;;;5012794;28;20207;-63
2021/10/24 06:06:08;;;;;;;6.40;4.90;;;;;;;;;;5012562;28;20261;-64
2021/10/24 06:08:36;;;;;;;7.27;4.53;;;;;;;;;;5012248;28;20291;-63
2021/10/24 06:11:16;;;;;;;7.73;4.87;;;;;;;;;;5012682;28;20298;-63
2021/10/24 06:13:46;;;;;;;8.50;4.53;;;;;;;;;;5012838;28;20554;-63
2021/10/24 06:16:15;;;;;;;6.03;4.40;;;;;;;;;;5012984;28;20198;-63
2021/10/24 06:18:43;;;;;;;7.93;4.63;;;;;;;;;;5012795;28;20614;-63
2021/10/24 06:21:12;;;;;;;7.57;4.30;;;;;;;;;;5012519;28;20299;-64
2021/10/24 06:23:40;;;;;;;6.47;4.50;;;;;;;;;;5012245;28;20563;-63
2021/10/24 06:26:08;;;;;;;6.57;4.40;;;;;;;;;;5012231;28;20219;-64
2021/10/24 06:28:36;;;;;;;5.63;3.93;;;;;;;;;;5012372;28;20204;-63
2021/10/24 06:31:10;;;;;;;5.87;4.90;;;;;;;;;;5012381;28;20556;-63
2021/10/24 06:33:40;;;;;;;6.87;4.70;;;;;;;;;;5012042;28;20727;-63
2021/10/24 06:36:08;;;;;;;7.50;4.77;;;;;;;;;;5013546;28;20185;-64
2021/10/24 06:38:36;;;;;;;6.43;4.43;;;;;;;;;;5016121;28;20200;-63
2021/10/24 06:41:04;;;;;;;8.17;5.03;;;;;;;;;;5016278;28;20300;-64
2021/10/24 06:43:32;;;;;;;7.13;4.67;;;4.50;99.90;;;;;;5015910;28;20212;-63
2021/10/24 06:46:01;;;;;;;9.00;5.37;;;;;;;;;;5015968;28;20216;-63
2021/10/24 06:48:31;;;;;;;6.80;4.60;;;;;;;;;;5015995;28;20200;-63
2021/10/24 06:50:59;;;;;;;8.73;6.00;;;;;;;;;;5016150;28;20204;-63
2021/10/24 06:53:27;;;;;;;8.07;4.97;;;;;;;;;;5015858;28;20208;-63
2021/10/24 06:55:55;;;;;;;6.93;5.13;;;;;;;;;;5015902;28;20205;-64
2021/10/24 06:58:23;;;;;;;7.20;5.37;;;;;;;;;;5015973;28;20229;-63
2021/10/24 07:00:51;;;;;;;6.80;5.27;;;;;;;;;;5015817;28;20296;-63
2021/10/24 07:03:20;;;;;;;7.10;5.13;;;;;;;;;;5015552;28;20674;-64
2021/10/24 07:05:50;;;;;;;8.67;5.80;;;;;;;;;;5015716;28;20211;-64
2021/10/24 07:08:18;;;;;;;7.83;5.30;;;;;;;;;;5015406;28;20627;-64
2021/10/24 07:10:46;;;;;;;9.60;6.07;;;;;;;;;;5015672;28;20744;-64
2021/10/24 07:13:14;;;;;;;7.83;5.70;;;;;;;;;;5015687;28;20241;-64
2021/10/24 07:15:43;;;;;;;7.87;5.90;;;;;;;;;;5015553;28;20215;-64
2021/10/24 07:18:11;;;;;;;10.20;6.20;;;;;;;;;;5015693;28;20204;-66
2021/10/24 07:20:39;;;;;;;7.47;6.10;;;;;;;;;;5015712;28;20207;-64
2021/10/24 07:23:08;;;;;;;9.90;6.20;;;5.70;99.90;;;;;;5015478;28;20255;-63
2021/10/24 07:25:36;;;;;;;9.60;6.13;;;5.80;99.90;;;;;;5015202;28;20304;-63
2021/10/24 07:28:05;;;;;;;6.23;5.10;;;5.90;99.90;;;;;;5015421;28;20328;-64
2021/10/24 07:30:33;;;;;;;8.13;5.77;;;6.00;99.90;;;;;;5015242;28;20228;-63
2021/10/24 07:33:00;;;;;;;8.50;5.97;;;6.10;99.90;;;;;;5015277;28;20979;-63
2021/10/24 07:35:28;;;;;;;9.93;6.27;;;6.20;99.90;;;;;;5015117;28;20273;-63
2021/10/24 07:37:56;;;;;;;8.37;6.00;;;6.30;99.90;;;;;;5014509;28;20219;-64
2021/10/24 07:40:26;;;;;;;7.70;5.93;;;6.40;99.90;;;;;;5014924;28;20201;-64
2021/10/24 07:42:54;;;;;;;8.70;5.67;;;6.50;99.90;;;;;;5015136;28;20288;-64
2021/10/24 07:45:22;;;;;;;7.17;5.97;;;6.60;99.90;;;;;;5015008;28;20201;-63
2021/10/24 07:47:50;;;;;;;10.43;6.17;;;6.60;99.90;;;;;;5013897;28;20221;-64
2021/10/24 07:50:18;;;;;;;10.67;5.83;;;6.70;99.90;;;;;;5014977;28;20213;-64
2021/10/24 07:52:46;;;;;;;11.03;6.37;;;6.80;99.90;;;;;;5014858;28;20212;-64
2021/10/24 07:55:14;;;;;;;8.07;5.83;;;7.00;99.90;;;;;;5014661;28;20207;-65
2021/10/24 07:57:43;;;;;;;8.60;5.70;;;7.00;99.90;;;;;;5014426;28;20209;-62
2021/10/24 08:00:11;;;;;;;9.77;5.83;;;7.10;99.90;;;;;;5013804;28;20207;-65
2021/10/24 08:02:39;;;;;;;7.33;5.50;;;7.20;99.90;;;;;;5014721;28;20640;-65
2021/10/24 08:05:08;;;;;;;8.30;5.80;;;7.30;99.90;;;;;;5014503;28;20653;-65
2021/10/24 08:07:37;;;;;;;7.20;5.37;;;7.40;99.90;;;;;;5014235;28;20224;-66
2021/10/24 08:10:06;;;;;;;9.17;5.80;;;7.50;99.90;;;;;;4994693;28;20583;-64
2021/10/24 08:12:34;;;;;;;5.90;5.10;;;7.60;99.90;;;;;;5002029;28;20195;-64
2021/10/24 08:15:04;;;;;;;6.83;5.40;;;7.60;99.90;;;;;;5014095;28;20666;-64
2021/10/24 08:17:32;;;;;;;6.80;5.13;;;7.70;99.90;;;;;;5014496;28;20191;-66
2021/10/24 08:20:00;;;;;;;6.67;5.20;;;7.80;99.90;;;;;;5003735;28;20256;-65
2021/10/24 08:22:28;;;;;;;8.90;4.37;;;7.80;99.90;;;;;;5014011;28;20202;-64
2021/10/24 08:24:56;;;;;;;5.23;4.07;;;7.90;99.90;;;;;;5022972;28;20232;-65
2021/10/24 08:27:24;;;;;;;5.80;3.63;;;8.00;99.90;;;;;;5029729;28;20206;-65
2021/10/24 08:29:52;;;;;;;4.70;3.37;;;8.20;99.90;;;;;;5013479;28;20282;-65
2021/10/24 08:32:21;;;;;;;5.00;3.20;;;8.20;99.90;;;;;;5013631;28;20195;-64
2021/10/24 08:34:49;;;;;;;5.20;2.80;;;8.30;99.90;;;;;;5012649;28;20765;-64
2021/10/24 08:37:19;;;;;;;4.90;2.93;;;8.40;99.90;;;;;;5013786;28;20217;-64
2021/10/24 08:39:52;;;;;;;4.80;2.90;;;8.50;99.90;;;;;;5013884;28;20190;-66
2021/10/24 08:42:25;;;;;;;4.33;2.60;;;8.60;99.90;;;;;;5013932;28;20282;-64
2021/10/24 08:44:55;;;;;;;7.30;2.80;;;8.70;99.90;;;;;;5014046;28;20183;-65
2021/10/24 08:47:24;;;;;;;3.57;2.77;;;8.70;99.90;;;;;;5013820;28;20226;-65
2021/10/24 08:49:52;;;;;;;3.57;2.87;;;8.90;99.90;;;;;;5013757;28;20223;-68
2021/10/24 08:52:22;;;;;;;4.93;3.20;;;8.90;99.90;;;;;;5013758;28;20619;-66
2021/10/24 08:54:53;;;;;;;4.97;2.93;;;9.10;99.90;;;;;;5013446;28;20278;-67
2021/10/24 08:57:23;;;;;;;4.80;2.73;;;9.20;99.90;;;;;;5013727;28;20183;-64
2021/10/24 08:59:51;;;;;;;6.70;2.77;;;9.40;99.90;;;;;;5012875;28;20205;-65
2021/10/24 09:02:19;;;;;;;5.47;3.40;;;9.40;99.90;;;;;;5013646;28;20237;-64
2021/10/24 09:04:51;;;;;;;5.60;2.50;;;9.40;99.90;;;;;;5013415;28;20237;-65
2021/10/24 09:07:21;;;;;;;3.50;2.70;;;9.40;99.90;;;;;;5013213;28;20282;-65
2021/10/24 09:09:50;;;;;;;3.83;2.80;;;9.50;99.90;;;;;;5013152;28;20613;-64
2021/10/24 09:12:18;;;;;;;5.53;2.67;;;9.60;99.90;;;;;;5013365;28;20253;-65
2021/10/24 09:14:47;;;;;;;4.70;3.00;;;9.60;99.90;;;;;;5013047;28;20671;-65
2021/10/24 09:17:20;;;;;;;4.77;2.87;;;9.60;99.90;;;;;;5013158;28;20742;-65
2021/10/24 09:19:51;;;;;;;4.90;2.70;;;9.70;99.90;;;;;;5013333;28;20187;-65
2021/10/24 09:22:25;;;;;;;4.10;2.60;;;9.80;99.90;;;;;;5013174;28;20241;-64
2021/10/24 09:25:09;;;;;;;3.97;2.43;;;9.90;99.90;;;;;;5012854;28;20233;-65
2021/10/24 09:27:47;;;;;;;4.77;2.60;;;10.10;99.90;;;;;;5013161;28;20238;-64
2021/10/24 09:30:17;;;;;;;4.13;2.63;;;10.20;99.90;;;;;;5013266;28;20186;-66
2021/10/24 09:32:52;;;;;;;3.83;2.63;;;10.40;99.90;;;;;;5013337;28;20293;-69
2021/10/24 09:35:26;;;;;;;4.87;2.57;;;10.40;99.90;;;;;;5012907;28;20269;-66
2021/10/24 09:37:55;;;;;;;5.40;3.00;;;10.40;99.90;;;;;;5012897;28;20266;-65
2021/10/24 09:40:27;;;;;;;4.87;2.53;;;;;;;;;;5012789;28;20253;-66
2021/10/24 09:43:17;;;;;;;4.77;2.60;;;10.40;99.90;;;;;;5012948;28;20225;-64
2021/10/24 09:45:47;;;;;;;4.50;2.27;;;10.50;99.90;;;;;;5012628;28;20190;-65
2021/10/24 09:48:17;;;;;;;4.50;1.90;;;10.50;99.90;;;;;;5013058;28;20254;-65
2021/10/24 09:50:50;;;;;;;4.40;2.40;;;10.60;99.90;;;;;;5012810;28;20183;-65
2021/10/24 09:53:21;;;;;;;4.13;2.50;;;10.70;99.90;;;;;;5012715;28;20197;-64
2021/10/24 09:56:06;;;;;;;5.07;2.47;;;10.70;99.90;;;;;;5012392;28;20191;-65
2021/10/24 09:58:35;;;;;;;4.30;2.33;;;10.70;99.90;;;;;;5012799;28;20233;-64
2021/10/24 10:01:05;;;;;;;4.03;2.73;;;10.70;99.90;;;;;;5012532;28;20705;-64
2021/10/24 10:03:34;;;;;;;4.77;2.27;;;10.70;99.90;;;;;;5013682;28;20265;-66
2021/10/24 10:06:04;;;;;;;4.20;2.83;;;10.90;99.90;;;;;;5012616;28;20205;-65
2021/10/24 10:08:43;;;;;;;3.37;2.33;;;10.90;99.90;;;;;;5012473;28;20622;-65
2021/10/24 10:11:19;;;;;;;5.70;2.57;;;10.90;99.90;;;;;;5013697;28;20194;-65
2021/10/24 10:13:54;;;;;;;3.03;2.03;;;11.00;99.90;;;;;;5016580;28;20288;-65
2021/10/24 10:16:31;;;;;;;2.73;2.33;;;11.00;99.90;;;;;;5016972;28;20218;-65
2021/10/24 10:19:10;;;;;;;5.27;2.50;;;11.40;99.90;;;;;;5016937;28;20311;-66
2021/10/24 10:21:41;;;;;;;4.33;2.00;;;11.50;99.90;;;;;;5016482;28;20269;-65
2021/10/24 10:24:10;;;;;;;4.15;2.30;;;12.10;99.90;;;;;;5016335;28;20282;-66
2021/10/24 10:26:41;;;;;;;4.90;2.40;;;12.40;99.90;;;;;;5016391;28;20209;-64
2021/10/24 10:29:11;;;;;;;3.53;2.17;;;12.40;99.90;;;;;;5016239;28;20234;-65
2021/10/24 10:31:41;;;;;;;5.88;2.50;;;12.20;99.90;;;;;;5016267;28;20194;-65
2021/10/24 10:34:10;;;;;;;4.83;2.90;;;12.00;99.90;;;;;;5016399;28;20230;-65
2021/10/24 10:37:00;;;;;;;5.77;2.60;;;11.90;99.90;;;;;;5015828;28;20274;-65
2021/10/24 10:39:45;;;;;;;3.83;2.83;;;11.80;99.90;;;;;;5016070;28;20183;-65
2021/10/24 10:42:58;;;;;;;6.20;2.80;;;11.60;99.90;;;;;;5015899;28;20191;-65
2021/10/24 10:45:37;;;;;;;4.50;2.70;;;11.60;99.90;;;;;;5015879;28;20289;-65
2021/10/24 10:48:07;;;;;;;3.93;2.90;;;11.50;99.90;;;;;;5015731;28;20187;-64
2021/10/24 10:50:46;;;;;;;6.10;2.93;;;11.40;99.90;;;;;;5015899;28;20207;-64
2021/10/24 10:53:35;;;;;;;5.20;2.73;;;11.40;99.90;;;;;;5015861;28;20193;-65
2021/10/24 10:56:19;;;;;;;5.57;2.73;;;11.50;99.90;;;;;;4999517;28;20249;-65
2021/10/24 10:58:48;;;;;;;4.83;2.67;;;11.50;99.90;;;;;;5015495;28;20564;-65
2021/10/24 11:01:22;;;;;;;2.87;2.30;;;11.50;99.90;;;;;;5015461;28;20242;-66
2021/10/24 11:03:53;;;;;;;4.27;2.73;;;11.70;99.90;;;;;;5015794;28;20218;-65
2021/10/24 11:06:47;;;;;;;4.23;2.57;;;11.60;99.90;;;;;;5015478;28;20193;-65
2021/10/24 11:09:54;;;;;;;3.33;2.30;;;11.70;99.90;;;;;;5015298;28;20218;-65
2021/10/24 11:12:44;;;;;;;5.33;2.50;;;11.90;99.90;;;;;;5015567;28;20274;-65
2021/10/24 11:15:15;;;;;;;3.93;2.67;;;11.90;99.90;;;;;;5015678;28;20286;-66
2021/10/24 11:17:45;;;;;;;4.53;2.77;;;12.00;99.90;;;;;;5015611;28;20606;-64
2021/10/24 11:20:18;;;;;;;6.60;2.67;;;12.10;99.90;;;;;;5015007;28;20658;-64
2021/10/24 11:22:47;;;;;;;2.40;2.00;;;;;;;;;;5015151;28;20383;-65
2021/10/24 11:25:36;;;;;;;5.37;2.30;;;;;;;;;;5015257;28;20183;-68
2021/10/24 11:28:12;;;;;;;3.40;2.03;;;12.10;99.90;;;;;;5015182;28;20718;-65
2021/10/24 11:30:41;;;;;;;4.40;2.07;;;12.20;99.90;;;;;;5015340;28;20565;-65
2021/10/24 11:33:09;;;;;;;3.67;2.10;;;12.20;99.90;;;;;;5015542;28;20209;-64
2021/10/24 11:35:39;;;;;;;3.80;2.40;;;12.30;99.90;;;;;;5014893;28;20235;-64
2021/10/24 11:38:10;;;;;;;3.83;2.30;;;12.30;99.90;;;;;;5015306;28;20203;-66
2021/10/24 11:40:40;;;;;;;6.27;2.00;;;12.40;99.90;;;;;;5014650;28;20646;-64
2021/10/24 11:43:13;;;;;;;6.03;2.57;;;12.30;99.90;;;;;;5014800;28;20187;-64
2021/10/24 11:45:44;;;;;;;4.93;2.10;;;12.30;99.90;;;;;;5015066;28;20270;-65
2021/10/24 11:48:17;;;;;;;3.00;1.80;;;12.30;99.90;;;;;;5014888;28;20191;-65
2021/10/24 11:50:57;;;;;;;3.22;1.80;;;12.40;99.90;;;;;;5014937;28;20609;-65
2021/10/24 11:53:31;;;;;;;4.50;1.77;;;12.40;99.90;;;;;;5014423;28;20191;-68
2021/10/24 11:56:04;;;;;;;3.13;2.00;;;12.50;99.90;;;;;;5014642;28;20241;-68
2021/10/24 11:59:04;;;;;;;4.73;1.87;;;12.50;99.90;;;;;;5014492;28;20596;-69
2021/10/24 12:01:34;;;;;;;3.37;1.80;;;12.60;99.90;;;;;;5014657;28;20594;-66
2021/10/24 12:04:04;;;;;;;3.33;1.90;;;12.60;99.90;;;;;;5014667;28;20194;-68
2021/10/24 12:06:51;;;;;;;2.97;1.70;;;12.50;99.90;;;;;;5014240;28;20285;-69
2021/10/24 12:09:30;;;;;;;4.20;2.00;;;12.50;99.90;;;;;;5014549;28;20250;-69
2021/10/24 12:12:07;;;;;;;4.40;2.20;;;12.60;99.90;;;;;;5014686;28;20199;-65
2021/10/24 12:14:47;;;;;;;4.33;1.73;;;12.50;99.90;;;;;;5014782;28;20281;-66
2021/10/24 12:17:16;;;;;;;4.97;2.23;;;12.50;99.90;;;;;;5014566;28;20215;-66
2021/10/24 12:19:44;;;;;;;4.40;2.23;;;12.50;99.90;;;;;;5014481;28;20206;-67
2021/10/24 12:22:13;;;;;;;3.10;1.80;;;12.50;99.90;;;;;;5014335;28;20226;-68
2021/10/24 12:24:44;;;;;;;3.87;2.10;;;12.60;99.90;;;;;;5014010;28;20209;-66
2021/10/24 12:27:19;;;;;;;4.20;1.87;;;12.70;99.90;;;;;;5013984;28;20191;-65
2021/10/24 12:30:19;;;;;;;4.97;2.47;;;13.10;99.90;;;;;;5013980;28;20634;-66
2021/10/24 12:32:54;;;;;;;4.40;2.20;;;13.50;99.90;;;;;;4970372;28;20294;-67
2021/10/24 12:35:23;;;;;;;3.05;2.13;;;14.10;99.90;;;;;;5013157;28;20238;-65
2021/10/24 12:37:58;;;;;;;5.25;2.45;;;14.60;99.90;;;;;;5014036;28;20202;-64
2021/10/24 12:40:28;;;;;;;5.20;2.47;;;14.70;99.90;;;;;;5013805;28;20237;-65
2021/10/24 12:43:08;;;;;;;4.13;2.25;;;14.50;99.90;;;;;;5013943;28;20230;-65
2021/10/24 12:45:46;;;;;;;3.60;2.17;;;14.20;99.90;;;;;;5013963;28;20269;-65
2021/10/24 12:48:15;;;;;;;3.70;2.20;;;13.90;99.90;;;;;;5013891;28;20266;-66
2021/10/24 12:50:44;;;;;;;5.03;2.00;;;13.70;99.90;;;;;;5013720;28;20645;-66
2021/10/24 12:53:13;;;;;;;3.72;2.10;;;13.40;99.90;;;;;;5014001;28;20248;-65
2021/10/24 12:56:02;;;;;;;4.53;2.25;;;13.30;99.90;;;;;;5013408;28;20211;-65
2021/10/24 12:58:30;;;;;;;5.07;2.33;;;13.20;99.90;;;;;;5013502;28;20218;-64
2021/10/24 13:00:59;;;;;;;4.77;2.30;;;13.00;99.90;;;;;;5013460;28;20195;-65
2021/10/24 13:03:27;;;;;;;4.97;2.70;;;12.90;99.90;;;;;;5013345;28;20672;-65
2021/10/24 13:05:55;;;;;;;6.18;2.35;;;12.90;99.90;;;;;;5013486;28;20303;-65
2021/10/24 13:08:23;;;;;;;4.07;2.20;;;12.90;99.90;;;;;;5013378;28;20207;-65
2021/10/24 13:10:51;;;;;;;3.57;2.40;;;12.90;99.90;;;;;;5013256;28;20222;-64
2021/10/24 13:13:19;;;;;;;4.17;2.17;;;12.90;99.90;;;;;;5013213;28;20713;-65
2021/10/24 13:15:47;;;;;;;4.65;2.10;;;12.90;99.90;;;;;;5013342;28;20242;-64
2021/10/24 13:18:16;;;;;;;3.92;2.10;;;12.70;99.90;;;;;;5013014;28;20547;-65
2021/10/24 13:20:45;;;;;;;3.10;2.23;;;12.90;99.90;;;;;;5013055;28;20720;-65
2021/10/24 13:23:13;;;;;;;2.87;1.90;;;12.80;99.90;;;;;;5012928;28;20292;-64
2021/10/24 13:25:41;;;;;;;3.97;1.87;;;12.80;99.90;;;;;;5013037;28;20198;-64
2021/10/24 13:28:09;;;;;;;3.63;1.90;;;12.60;99.90;;;;;;5013067;28;20297;-66
2021/10/24 13:30:37;;;;;;;3.00;1.93;;;12.80;99.90;;;;;;5013244;28;20269;-64